David, David Enrique Malek International Airport (MPDA)

NameDavid Enrique Malek International Airport
CityDavid
CountryPanama
ICAOMPDA
IATADAV
Altitude27 m
CoordinatesGoogle Map
Live Air TrafficLiveATC.net
METARMPDA 202300Z 22006KT 9999 SCT016CB SCT120 30/24 Q1008
2019-03-20 23:00:00 Wind: South-Southwest (220°) 3.09 m/s - Visibility: > 10000 m - Temperature: 30 °C - Dew point: 24 °C - Humidity: 70.3% - Pressure: 1008 hPa
Statistics

The table below shows the detailed information of all flights to/from David, David Enrique Malek International Airport (MPDA).